Time;durP1;ratioP1;P1;durP2;ratioP2;P2;SDS_P1;SDS_P2;PMS_P1;PMS_P2;Temp;Humidity;BMP_temperature;BMP_pressure;BME280_temperature;BME280_humidity;BME280_pressure;Samples;Min_cycle;Max_cycle;Signal;HPM_P1;HPM_P2
2021/11/22 00:02:07;;;;;;;16.67;7.90;;;1.80;99.90;;;2.26;100.00;100687.81;5003534;28;20038;-84
2021/11/22 00:04:33;;;;;;;18.98;7.80;;;1.80;99.90;;;2.27;100.00;100702.44;4977129;28;20034;-82
2021/11/22 00:06:59;;;;;;;15.38;7.93;;;1.80;99.90;;;2.26;100.00;100703.53;4992492;28;20038;-83
2021/11/22 00:09:25;;;;;;;24.50;9.48;;;1.80;99.90;;;2.22;100.00;100703.31;4975975;28;20525;-84
2021/11/22 00:11:52;;;;;;;17.25;7.78;;;1.80;99.90;;;2.23;100.00;100699.44;4992818;28;20026;-83
2021/11/22 00:14:18;;;;;;;23.20;9.18;;;1.80;99.90;;;2.24;100.00;100706.63;4992202;28;20076;-83
2021/11/22 00:16:44;;;;;;;29.88;10.57;;;1.80;99.90;;;2.38;100.00;100703.88;4976642;28;20037;-82
2021/11/22 00:19:11;;;;;;;23.67;8.27;;;1.90;99.90;;;2.51;100.00;100708.59;4976493;28;20117;-81
2021/11/22 00:21:37;;;;;;;21.15;9.48;;;2.00;99.90;;;2.53;100.00;100707.19;4993033;28;20034;-83
2021/11/22 00:24:04;;;;;;;22.08;9.73;;;2.10;99.90;;;2.60;100.00;100723.34;4992890;28;20086;-85
2021/11/22 00:26:30;;;;;;;23.25;10.10;;;2.10;99.90;;;2.70;100.00;100722.34;4992733;28;20038;-83
2021/11/22 00:28:56;;;;;;;16.67;8.20;;;2.20;99.90;;;2.72;100.00;100714.56;4976783;28;20049;-87
2021/11/22 00:31:23;;;;;;;18.05;8.70;;;2.30;99.90;;;2.72;100.00;100720.91;4994359;28;20323;-85
2021/11/22 00:33:50;;;;;;;16.10;8.85;;;2.30;99.90;;;2.73;100.00;100725.28;4991926;28;20542;-84
2021/11/22 00:36:16;;;;;;;22.38;8.52;;;2.30;99.90;;;2.85;100.00;100728.41;4976279;28;20084;-82
2021/11/22 00:38:42;;;;;;;25.52;9.60;;;2.30;99.90;;;2.95;100.00;100733.72;4975394;28;20053;-80
2021/11/22 00:41:08;;;;;;;22.38;9.30;;;2.50;99.90;;;3.10;100.00;100733.41;4991766;28;20037;-82
2021/11/22 00:43:35;;;;;;;19.77;8.60;;;2.60;99.90;;;3.17;100.00;100738.53;4991862;28;20039;-84
2021/11/22 00:46:01;;;;;;;19.88;8.77;;;2.70;99.90;;;3.27;100.00;100743.03;4991457;28;20225;-82
2021/11/22 00:48:27;;;;;;;28.30;9.43;;;2.80;99.90;;;3.38;100.00;100739.72;4992010;28;20030;-84
2021/11/22 00:50:55;;;;;;;26.60;10.75;;;2.90;99.90;;;3.73;100.00;100754.72;4992826;28;20061;-87
2021/11/22 00:53:22;;;;;;;28.63;11.80;;;3.20;99.90;;;4.00;100.00;100756.59;4976619;28;20037;-82
2021/11/22 00:55:48;;;;;;;27.63;12.00;;;3.40;99.90;;;4.18;100.00;100763.91;4993534;28;20037;-85
2021/11/22 00:58:14;;;;;;;28.42;11.55;;;3.60;99.90;;;4.27;100.00;100764.78;4976296;28;20501;-84
2021/11/22 01:00:41;;;;;;;28.63;11.05;;;3.70;99.90;;;4.34;100.00;100780.94;4993587;28;20062;-85
2021/11/22 01:03:07;;;;;;;23.75;11.40;;;3.80;99.90;;;4.40;100.00;100786.03;4993605;28;20113;-80
2021/11/22 01:05:33;;;;;;;25.23;11.05;;;3.90;99.90;;;4.48;100.00;100771.47;4992222;28;20429;-84
2021/11/22 01:08:01;;;;;;;24.33;10.98;;;3.90;99.90;;;4.56;100.00;100775.44;4975835;28;20038;-84
2021/11/22 01:10:28;;;;;;;28.02;11.65;;;4.00;99.90;;;4.60;100.00;100777.22;4975562;28;20037;-84
2021/11/22 01:12:54;;;;;;;27.38;12.38;;;4.00;99.90;;;4.62;100.00;100780.50;4991756;28;20030;-83
2021/11/22 01:15:23;;;;;;;27.45;13.88;;;4.10;99.90;;;4.68;100.00;100795.84;4991566;28;20556;-82
2021/11/22 01:17:54;;;;;;;25.52;13.32;;;4.10;99.90;;;4.77;100.00;100798.66;4991670;28;20041;-85
2021/11/22 01:20:29;;;;;;;29.70;13.02;;;4.20;99.90;;;4.82;100.00;100803.28;4976011;28;20030;-84
2021/11/22 01:23:09;;;;;;;29.05;13.68;;;4.20;99.90;;;4.79;100.00;100804.69;4975891;28;20481;-82
2021/11/22 01:25:39;;;;;;;28.38;14.00;;;4.20;99.90;;;4.83;100.00;100807.66;4997398;28;20076;-84
2021/11/22 01:28:06;;;;;;;23.92;13.75;;;4.20;99.90;;;4.87;100.00;100806.72;4979733;28;20031;-83
2021/11/22 01:30:32;;;;;;;34.17;13.80;;;4.30;99.90;;;4.91;100.00;100816.03;4998007;28;20026;-83
2021/11/22 01:32:58;;;;;;;28.48;13.48;;;4.30;99.90;;;4.93;100.00;100824.81;4997451;28;20034;-83
2021/11/22 01:35:24;;;;;;;27.27;14.63;;;4.30;99.90;;;4.96;100.00;100828.91;4996440;28;20030;-81
2021/11/22 01:37:51;;;;;;;26.92;13.70;;;4.40;99.90;;;5.01;100.00;100837.88;4996551;28;20475;-82
2021/11/22 01:40:23;;;;;;;27.05;13.75;;;4.40;99.90;;;5.05;100.00;100832.53;4981575;28;20073;-84
2021/11/22 01:42:52;;;;;;;27.27;13.45;;;4.40;99.90;;;5.11;100.00;100834.03;4980891;28;20030;-84
2021/11/22 01:45:22;;;;;;;26.73;12.93;;;4.50;99.90;;;5.06;100.00;100843.31;4980480;28;20499;-84
2021/11/22 01:47:48;;;;;;;26.60;12.05;;;4.50;99.90;;;5.09;100.00;100841.84;4980632;28;20511;-83
2021/11/22 01:50:20;;;;;;;28.25;13.43;;;4.50;99.90;;;5.13;100.00;100842.84;5003843;28;20030;-84
2021/11/22 01:52:50;;;;;;;23.95;12.70;;;4.50;99.90;;;5.16;100.00;100842.22;5017739;28;20022;-80
2021/11/22 01:55:21;;;;;;;20.88;12.70;;;4.50;99.90;;;5.19;100.00;100849.91;5019911;28;20067;-81
2021/11/22 01:57:51;;;;;;;29.42;12.90;;;4.50;99.90;;;5.14;100.00;100858.31;5003015;28;20022;-79
2021/11/22 02:00:28;;;;;;;25.52;12.30;;;4.60;99.90;;;5.24;100.00;100869.13;5019854;28;20041;-79
2021/11/22 02:02:56;;;;;;;30.45;13.65;;;4.60;99.90;;;5.25;100.00;100866.06;5018783;28;20026;-78
2021/11/22 02:05:23;;;;;;;25.15;13.73;;;4.60;99.90;;;5.24;100.00;100874.66;5002608;28;20046;-82
2021/11/22 02:07:51;;;;;;;22.40;13.27;;;4.60;99.90;;;5.29;100.00;100869.00;5002867;28;20052;-78
2021/11/22 02:10:18;;;;;;;24.20;13.20;;;4.60;99.90;;;5.36;100.00;100874.91;5002897;28;20125;-78
2021/11/22 02:12:46;;;;;;;22.58;13.40;;;4.70;99.90;;;5.43;100.00;100877.22;5002881;28;20026;-79
2021/11/22 02:15:14;;;;;;;27.40;13.88;;;4.70;99.90;;;5.46;100.00;100879.38;5019378;28;20033;-79
2021/11/22 02:17:45;;;;;;;24.60;14.50;;;4.70;99.90;;;5.51;100.00;100888.34;5008924;28;20037;-85
2021/11/22 02:20:20;;;;;;;24.73;13.90;;;4.80;99.90;;;5.52;100.00;100889.97;5002383;28;20030;-87
2021/11/22 02:22:51;;;;;;;26.30;14.38;;;4.80;99.90;;;5.52;100.00;100883.63;5000922;28;20053;-85
2021/11/22 02:25:21;;;;;;;21.63;13.05;;;4.80;99.90;;;5.54;100.00;100884.13;4982962;28;20376;-85
2021/11/22 02:27:49;;;;;;;22.30;13.60;;;4.90;99.90;;;5.54;100.00;100892.44;4982346;28;20031;-86
2021/11/22 02:30:24;;;;;;;23.27;13.30;;;4.90;99.90;;;5.56;100.00;100896.50;5000216;28;20031;-88
2021/11/22 02:32:50;;;;;;;22.73;14.68;;;4.90;99.90;;;5.62;100.00;100900.78;4981957;28;20057;-86
2021/11/22 02:35:20;;;;;;;25.52;14.52;;;4.90;99.90;;;5.60;100.00;100905.81;4996039;28;20049;-80
2021/11/22 02:37:48;;;;;;;29.25;14.23;;;4.90;99.90;;;5.65;100.00;100915.97;4978358;28;20394;-81
2021/11/22 02:40:16;;;;;;;20.92;13.65;;;5.00;99.90;;;5.65;100.00;100915.97;4995691;28;20121;-84
2021/11/22 02:42:44;;;;;;;23.65;13.68;;;5.00;99.90;;;5.67;100.00;100919.22;4994504;28;20097;-84
2021/11/22 02:45:19;;;;;;;23.65;13.55;;;5.00;99.90;;;5.71;100.00;100915.50;4994694;28;20042;-84
2021/11/22 02:47:49;;;;;;;23.65;13.75;;;5.00;99.90;;;5.74;100.00;100919.59;4978132;28;20034;-82
2021/11/22 02:50:19;;;;;;;21.85;13.68;;;5.10;99.90;;;5.77;100.00;100922.53;4978100;28;20101;-82
2021/11/22 02:52:48;;;;;;;23.88;14.15;;;5.10;99.90;;;5.81;100.00;100912.44;4994302;28;20026;-83
2021/11/22 02:55:18;;;;;;;22.05;13.38;;;5.10;99.90;;;5.88;100.00;100920.31;4994331;28;20022;-83
2021/11/22 02:57:44;;;;;;;22.13;14.00;;;5.20;99.90;;;5.87;100.00;100918.72;4996600;28;20069;-82
2021/11/22 03:00:28;;;;;;;22.50;13.63;;;5.20;99.90;;;5.87;100.00;100929.78;4979872;28;20094;-83
2021/11/22 03:02:55;;;;;;;25.67;14.93;;;5.20;99.90;;;5.84;100.00;100928.41;4979925;28;20118;-83
2021/11/22 03:05:23;;;;;;;24.10;13.75;;;5.20;99.90;;;5.90;100.00;100933.88;4979974;28;20088;-80
2021/11/22 03:07:54;;;;;;;21.02;13.32;;;5.20;99.90;;;5.86;100.00;100939.25;4979525;28;20038;-82
2021/11/22 03:10:25;;;;;;;20.98;12.23;;;5.20;99.90;;;5.93;100.00;100938.78;4996911;28;20098;-82
2021/11/22 03:12:52;;;;;;;18.77;12.25;;;5.20;99.90;;;5.93;100.00;100939.59;4979840;28;20044;-81
2021/11/22 03:15:21;;;;;;;20.77;12.65;;;5.30;99.90;;;6.00;100.00;100947.44;4997256;28;20500;-86
2021/11/22 03:17:48;;;;;;;22.45;11.63;;;5.30;99.90;;;5.97;100.00;100953.63;4996919;28;20628;-85
2021/11/22 03:20:20;;;;;;;17.70;11.38;;;5.30;99.90;;;5.98;100.00;100953.31;4994118;28;20113;-84
2021/11/22 03:22:48;;;;;;;19.95;11.10;;;5.30;99.90;;;5.98;100.00;100958.03;4977499;28;20481;-80
2021/11/22 03:25:17;;;;;;;18.40;10.60;;;5.30;99.90;;;5.94;100.00;100954.28;4993696;28;20049;-84
2021/11/22 03:27:46;;;;;;;16.52;10.27;;;5.30;99.90;;;6.03;100.00;100955.13;4977911;28;20035;-81
2021/11/22 03:30:14;;;;;;;17.70;11.07;;;5.30;99.90;;;6.06;100.00;100968.34;4977690;28;20034;-83
2021/11/22 03:32:41;;;;;;;15.75;10.02;;;5.40;99.90;;;6.04;100.00;100962.28;4977598;28;20031;-82
2021/11/22 03:35:09;;;;;;;18.20;10.00;;;5.40;99.90;;;6.07;100.00;100965.25;4994989;28;20033;-83
2021/11/22 03:37:35;;;;;;;15.65;9.50;;;5.40;99.90;;;6.05;100.00;100966.72;4977098;28;20385;-85
2021/11/22 03:40:03;;;;;;;15.88;9.43;;;5.50;99.90;;;6.11;100.00;100973.75;4993262;28;20027;-84
2021/11/22 03:42:37;;;;;;;16.95;9.77;;;5.50;99.90;;;6.05;100.00;100978.63;4993110;28;20030;-85
2021/11/22 03:45:06;;;;;;;16.45;10.32;;;5.40;99.90;;;6.05;100.00;100980.56;4994403;28;20165;-84
2021/11/22 03:47:33;;;;;;;14.00;9.10;;;5.50;99.90;;;6.16;100.00;100991.06;4976347;28;20379;-82
2021/11/22 03:49:59;;;;;;;13.85;9.13;;;5.50;99.90;;;6.17;100.00;100989.91;4993050;28;20026;-83
2021/11/22 03:52:24;;;;;;;14.63;9.35;;;5.50;99.90;;;6.15;100.00;100988.59;4993604;28;20133;-83
2021/11/22 03:54:50;;;;;;;15.98;9.00;;;5.50;99.90;;;6.12;100.00;101006.72;4994677;28;20074;-82
2021/11/22 03:57:16;;;;;;;16.38;10.35;;;5.50;99.90;;;6.15;100.00;101006.06;4993647;28;20088;-84
2021/11/22 03:59:43;;;;;;;14.15;9.85;;;5.50;99.90;;;6.16;100.00;101002.16;4993655;28;20061;-86
2021/11/22 04:02:09;;;;;;;18.17;10.18;;;5.50;99.90;;;6.21;100.00;101009.50;4993815;28;20049;-84
2021/11/22 04:04:35;;;;;;;14.88;10.05;;;5.50;99.90;;;6.22;100.00;101017.53;4994461;28;20506;-84
2021/11/22 04:07:01;;;;;;;14.27;9.32;;;5.50;99.90;;;6.24;100.00;101023.56;4992938;28;20056;-85
2021/11/22 04:09:27;;;;;;;16.30;10.13;;;5.60;99.90;;;6.20;100.00;101018.97;4992571;28;20041;-82
2021/11/22 04:11:53;;;;;;;19.58;9.88;;;5.50;99.90;;;6.09;100.00;101026.75;4976544;28;20030;-84
2021/11/22 04:14:19;;;;;;;14.57;9.38;;;5.50;99.90;;;6.07;100.00;101042.09;4993437;28;20026;-84
2021/11/22 04:16:45;;;;;;;15.15;9.23;;;5.50;99.90;;;6.07;100.00;101040.13;4993416;28;20414;-84
2021/11/22 04:19:10;;;;;;;20.25;9.13;;;5.50;99.90;;;6.03;100.00;101043.84;4976595;28;20064;-84
2021/11/22 04:21:37;;;;;;;10.93;8.15;;;5.40;99.90;;;5.99;100.00;101043.69;4994160;28;20590;-84
2021/11/22 04:24:05;;;;;;;9.75;7.40;;;5.40;99.90;;;5.86;100.00;101052.91;4993285;28;20038;-81
2021/11/22 04:26:31;;;;;;;11.23;7.45;;;5.30;99.90;;;5.86;100.00;101049.31;4993082;28;20102;-83
2021/11/22 04:28:58;;;;;;;9.38;7.03;;;5.30;99.90;;;5.78;100.00;101051.66;4992733;28;20037;-84
2021/11/22 04:31:24;;;;;;;11.07;7.90;;;5.20;99.90;;;5.66;100.00;101059.75;4993400;28;20410;-85
2021/11/22 04:33:49;;;;;;;11.05;8.23;;;5.10;99.90;;;5.67;100.00;101066.94;4995225;28;20037;-84
2021/11/22 04:36:15;;;;;;;12.60;7.80;;;5.10;99.90;;;5.63;100.00;101065.91;4998923;28;20038;-86
2021/11/22 04:38:41;;;;;;;10.38;7.63;;;5.10;99.90;;;5.55;100.00;101069.44;4993536;28;20033;-85
2021/11/22 04:41:08;;;;;;;9.35;7.63;;;5.00;99.90;;;5.53;100.00;101074.47;4993163;28;20030;-84
2021/11/22 04:43:34;;;;;;;12.13;8.57;;;5.00;99.90;;;5.47;100.00;101078.50;4995370;28;20398;-88
2021/11/22 04:46:00;;;;;;;13.93;8.45;;;4.90;99.90;;;5.45;100.00;101071.63;4993631;28;20101;-85
2021/11/22 04:48:26;;;;;;;13.60;8.35;;;4.90;99.90;;;5.41;100.00;101081.69;4993735;28;20244;-85
2021/11/22 04:50:52;;;;;;;11.13;8.75;;;4.90;99.90;;;5.44;100.00;101081.06;4993584;28;20494;-85
2021/11/22 04:53:18;;;;;;;11.43;8.60;;;4.90;99.90;;;5.39;100.00;101082.03;4994143;28;20023;-85
2021/11/22 04:55:45;;;;;;;12.63;9.13;;;4.90;99.90;;;5.45;100.00;101091.84;4994102;28;20088;-85
2021/11/22 04:58:11;;;;;;;13.60;8.65;;;4.90;99.90;;;5.49;100.00;101090.06;4994409;28;20064;-87
2021/11/22 05:00:37;;;;;;;11.40;8.63;;;4.90;99.90;;;5.53;100.00;101096.63;4997561;28;20026;-83
2021/11/22 05:03:06;;;;;;;11.57;8.90;;;4.90;99.90;;;5.51;100.00;101093.38;4980810;28;20041;-83
2021/11/22 05:05:33;;;;;;;13.23;9.27;;;4.90;99.90;;;5.53;100.00;101113.25;4993334;28;20030;-83
2021/11/22 05:08:05;;;;;;;11.95;8.57;;;4.90;99.90;;;5.49;100.00;101111.44;4991349;28;20045;-84
2021/11/22 05:10:44;;;;;;;11.00;7.95;;;4.90;99.90;;;5.46;100.00;101112.88;4991443;28;20415;-84
2021/11/22 05:13:19;;;;;;;13.30;8.85;;;4.90;99.90;;;5.39;100.00;101118.03;4976183;28;20038;-82
2021/11/22 05:15:48;;;;;;;12.55;8.50;;;4.80;99.90;;;5.38;100.00;101121.94;4993869;28;20053;-85
2021/11/22 05:18:16;;;;;;;11.73;8.68;;;4.80;99.90;;;5.42;100.00;101133.22;4992593;28;20035;-84
2021/11/22 05:20:44;;;;;;;13.32;8.23;;;4.80;99.90;;;5.42;100.00;101130.44;4995742;28;20037;-83
2021/11/22 05:23:12;;;;;;;13.45;9.35;;;4.80;99.90;;;5.41;100.00;101135.16;4993099;28;20038;-82
2021/11/22 05:25:39;;;;;;;11.20;8.50;;;4.90;99.90;;;5.46;100.00;101137.00;4993444;28;20482;-85
2021/11/22 05:28:06;;;;;;;11.48;8.13;;;4.80;99.90;;;5.42;100.00;101139.59;4994066;28;20038;-84
2021/11/22 05:30:34;;;;;;;13.15;9.07;;;4.80;99.90;;;5.45;100.00;101135.38;4994175;28;20034;-83
2021/11/22 05:33:03;;;;;;;13.98;9.38;;;4.80;99.90;;;5.44;100.00;101153.09;4995117;28;20327;-85
2021/11/22 05:35:31;;;;;;;15.88;10.52;;;4.80;99.90;;;5.47;100.00;101158.84;4994170;28;20054;-85
2021/11/22 05:37:58;;;;;;;12.93;10.02;;;4.80;99.90;;;5.43;100.00;101160.59;4994171;28;20538;-84
2021/11/22 05:40:25;;;;;;;14.55;10.73;;;4.80;99.90;;;5.42;100.00;101172.00;4977523;28;20045;-82
2021/11/22 05:42:53;;;;;;;16.48;11.18;;;4.80;99.90;;;5.45;100.00;101171.38;4978454;28;20054;-86
2021/11/22 05:45:19;;;;;;;17.23;11.88;;;4.80;99.90;;;5.41;100.00;101175.88;4977833;28;20023;-86
2021/11/22 05:47:47;;;;;;;19.15;12.88;;;4.80;99.90;;;5.37;100.00;101184.00;4977163;28;20058;-84
2021/11/22 05:50:15;;;;;;;16.15;11.57;;;4.80;99.90;;;5.42;100.00;101188.63;4992736;28;20031;-84
2021/11/22 05:52:44;;;;;;;14.88;11.30;;;4.80;99.90;;;5.36;100.00;101200.94;4976562;28;20030;-86
2021/11/22 05:55:19;;;;;;;17.42;13.02;;;4.70;99.90;;;5.27;100.00;101206.38;4976791;28;20088;-84
2021/11/22 05:57:44;;;;;;;17.75;11.95;;;4.70;99.90;;;5.30;100.00;101197.44;4994461;28;20027;-84
2021/11/22 06:00:11;;;;;;;15.13;10.48;;;4.70;99.90;;;5.24;100.00;101201.44;4996914;28;20481;-87
2021/11/22 06:02:37;;;;;;;16.65;10.88;;;4.70;99.90;;;5.27;100.00;101203.59;4996397;28;20037;-85
2021/11/22 06:05:04;;;;;;;13.88;10.23;;;4.70;99.90;;;5.25;100.00;101205.88;4977586;28;20034;-81
2021/11/22 06:07:30;;;;;;;13.52;10.57;;;4.70;99.90;;;5.22;100.00;101204.53;4984056;28;20101;-84
2021/11/22 06:09:58;;;;;;;16.65;12.20;;;4.70;99.90;;;5.19;100.00;101210.72;4978902;28;20066;-84
2021/11/22 06:12:24;;;;;;;14.13;11.15;;;4.60;99.90;;;5.18;100.00;101213.78;4997723;28;20026;-84
2021/11/22 06:14:52;;;;;;;12.50;10.05;;;4.70;99.90;;;5.14;100.00;101204.44;4981680;28;20049;-84
2021/11/22 06:17:19;;;;;;;16.00;10.80;;;4.60;99.90;;;5.09;100.00;101213.69;4980485;28;20061;-84
2021/11/22 06:19:45;;;;;;;14.98;10.65;;;4.50;99.90;;;5.02;100.00;101216.03;4981284;28;20031;-86
2021/11/22 06:22:10;;;;;;;14.13;11.02;;;4.50;99.90;;;5.03;100.00;101214.91;4980956;28;20038;-84
2021/11/22 06:24:37;;;;;;;15.93;12.07;;;4.50;99.90;;;4.90;100.00;101223.22;4981999;28;20034;-84
2021/11/22 06:27:04;;;;;;;19.08;12.50;;;4.50;99.90;;;5.01;100.00;101230.19;4980969;28;20034;-86
2021/11/22 06:29:29;;;;;;;15.32;11.35;;;4.50;99.90;;;4.96;100.00;101235.81;4981670;28;20054;-82
2021/11/22 06:31:56;;;;;;;14.32;10.35;;;4.40;99.90;;;5.05;100.00;101233.97;4997961;28;20171;-85
2021/11/22 06:34:21;;;;;;;17.60;10.88;;;4.50;99.90;;;5.06;100.00;101241.16;4981094;28;20461;-84
2021/11/22 06:36:47;;;;;;;17.35;12.60;;;4.50;99.90;;;4.97;100.00;101243.84;4981487;28;20061;-84
2021/11/22 06:39:14;;;;;;;18.35;12.57;;;4.40;99.90;;;4.93;100.00;101239.19;4998802;28;20045;-85
2021/11/22 06:41:40;;;;;;;18.17;13.05;;;4.40;99.90;;;4.96;100.00;101244.94;4981511;28;20042;-84
2021/11/22 06:44:06;;;;;;;15.68;11.98;;;4.40;99.90;;;5.01;100.00;101247.59;4980125;28;20058;-83
2021/11/22 06:46:32;;;;;;;17.92;13.05;;;4.40;99.90;;;5.03;100.00;101245.38;4981759;28;20045;-83
2021/11/22 06:48:59;;;;;;;18.70;12.35;;;4.40;99.90;;;5.05;100.00;101256.13;4998310;28;20034;-85
2021/11/22 06:51:25;;;;;;;18.35;12.70;;;4.50;99.90;;;4.96;100.00;101263.50;4984160;28;20463;-88
2021/11/22 06:53:51;;;;;;;24.25;16.13;;;4.40;99.90;;;4.94;100.00;101263.81;4987366;28;20018;-84
2021/11/22 06:56:17;;;;;;;23.70;16.83;;;4.40;99.90;;;4.96;100.00;101269.03;4979454;28;20029;-85
2021/11/22 06:58:43;;;;;;;24.80;16.80;;;4.40;99.90;;;4.98;100.00;101275.91;4995222;28;20022;-82
2021/11/22 07:01:09;;;;;;;23.17;16.42;;;4.40;99.90;;;4.99;100.00;101277.56;4997860;28;20030;-85
2021/11/22 07:03:35;;;;;;;26.00;16.00;;;4.50;99.90;;;5.00;100.00;101286.69;4979701;28;20395;-86
2021/11/22 07:06:03;;;;;;;22.63;15.75;;;4.40;99.90;;;4.99;100.00;101298.88;4979205;28;20045;-86
2021/11/22 07:08:30;;;;;;;26.85;15.60;;;4.50;99.90;;;4.99;100.00;101302.47;4979007;28;20026;-86
2021/11/22 07:10:56;;;;;;;20.58;15.10;;;4.50;99.90;;;5.02;100.00;101306.56;4995383;28;20046;-83
2021/11/22 07:13:24;;;;;;;22.17;13.60;;;4.50;99.90;;;5.04;100.00;101312.66;4996061;28;20049;-88
2021/11/22 07:15:50;;;;;;;18.55;13.43;;;4.50;99.90;;;5.03;100.00;101320.13;4984059;28;20478;-88
2021/11/22 07:18:16;;;;;;;16.00;12.80;;;4.50;99.90;;;5.05;100.00;101311.50;4981920;28;20087;-86
2021/11/22 07:20:46;;;;;;;18.55;13.75;;;4.50;99.90;;;5.05;100.00;101339.19;4979432;28;20026;-84
2021/11/22 07:23:14;;;;;;;23.48;15.18;;;4.50;99.90;;;5.02;100.00;101324.00;4995572;28;20436;-84
2021/11/22 07:25:42;;;;;;;23.52;15.32;;;4.50;99.90;;;5.07;100.00;101336.94;4979743;28;20034;-85
2021/11/22 07:28:08;;;;;;;23.15;14.93;;;4.50;99.90;;;5.10;100.00;101351.00;4997494;28;20041;-85
2021/11/22 07:30:36;;;;;;;23.50;14.23;;;4.60;99.90;;;5.10;100.00;101355.72;5005956;28;20030;-84
2021/11/22 07:33:02;;;;;;;18.75;13.02;;;4.60;99.90;;;5.13;100.00;101361.47;5010543;28;20122;-83
2021/11/22 07:35:28;;;;;;;18.98;13.93;;;4.60;99.90;;;5.16;100.00;101360.88;5000909;28;20031;-86
2021/11/22 07:37:54;;;;;;;15.88;12.32;;;4.60;99.90;;;5.20;100.00;101374.94;5000828;28;20406;-82
2021/11/22 07:40:21;;;;;;;18.52;12.05;;;4.60;99.90;;;5.23;100.00;101368.78;5035668;23;20103;-76
2021/11/22 07:42:54;;;;;;;17.65;11.75;;;4.60;99.90;;;5.14;100.00;101376.13;5032974;28;20026;-78
2021/11/22 07:45:22;;;;;;;17.50;12.60;;;4.60;99.90;;;5.23;100.00;101386.19;5032167;28;20034;-77
2021/11/22 07:47:49;;;;;;;18.50;12.82;;;4.60;99.90;;;5.25;100.00;101383.97;5032741;28;20059;-76
2021/11/22 07:50:23;;;;;;;18.27;12.63;;;4.60;99.90;;;5.21;100.00;101399.53;5032172;28;20439;-77
2021/11/22 07:52:50;;;;;;;15.95;12.02;;;4.60;99.90;;;5.20;100.00;101402.63;5061996;23;20041;-78
2021/11/22 07:55:21;;;;;;;19.30;12.52;;;4.60;99.90;;;5.18;100.00;101405.69;5022464;28;20025;-79
2021/11/22 07:57:51;;;;;;;17.02;12.52;;;4.50;99.90;;;5.13;100.00;101410.50;5039450;28;20128;-78
2021/11/22 08:00:20;;;;;;;19.75;13.63;;;4.60;99.90;;;5.14;100.00;101409.34;5038935;28;20033;-78
2021/11/22 08:02:47;;;;;;;20.23;14.35;;;4.50;99.90;;;5.15;100.00;101413.78;5038381;28;20108;-79
2021/11/22 08:05:13;;;;;;;20.42;14.27;;;4.50;99.90;;;5.15;100.00;101419.31;5056293;28;20535;-76
2021/11/22 08:07:41;;;;;;;20.15;15.30;;;4.50;99.90;;;5.16;100.00;101421.78;5055898;28;20063;-76
2021/11/22 08:10:25;;;;;;;19.98;14.32;;;4.60;99.90;;;5.11;100.00;101421.88;5055768;28;20029;-76
2021/11/22 08:13:02;;;;;;;20.90;13.57;;;4.60;99.90;;;5.05;100.00;101436.91;5008785;28;20056;-76
2021/11/22 08:15:33;;;;;;;18.95;13.02;;;4.50;99.90;;;5.13;100.00;101435.41;5038281;28;20419;-76
2021/11/22 08:18:05;;;;;;;17.42;12.38;;;4.50;99.90;;;5.06;100.00;101440.50;5039219;28;20055;-78
2021/11/22 08:20:32;;;;;;;23.90;16.02;;;4.50;99.90;;;5.10;100.00;101436.03;5055282;28;20476;-77
2021/11/22 08:22:58;;;;;;;20.63;14.85;;;4.50;99.90;;;5.02;100.00;101437.53;5055568;28;20029;-76
2021/11/22 08:25:32;;;;;;;22.13;15.70;;;4.50;99.90;;;5.11;100.00;101445.94;5055482;28;20033;-76
2021/11/22 08:27:59;;;;;;;23.20;15.40;;;4.50;99.90;;;5.19;100.00;101446.09;5038322;28;20492;-78
2021/11/22 08:30:30;;;;;;;21.17;14.00;;;4.60;99.90;;;5.22;100.00;101455.75;5037494;28;20036;-77
2021/11/22 08:32:57;;;;;;;20.67;13.57;;;4.60;99.90;;;5.19;100.00;101450.81;5037135;28;20126;-76
2021/11/22 08:35:25;;;;;;;20.75;14.07;;;4.60;99.90;;;5.20;100.00;101458.81;5037352;28;20025;-76
2021/11/22 08:37:52;;;;;;;20.17;13.88;;;4.60;99.90;;;5.21;100.00;101459.63;5021574;28;20040;-79
2021/11/22 08:40:22;;;;;;;22.48;13.50;;;4.60;99.90;;;5.20;100.00;101458.81;5037125;28;20036;-76
2021/11/22 08:42:52;;;;;;;17.05;12.38;;;4.60;99.90;;;5.21;100.00;101459.63;5037706;28;20036;-76
2021/11/22 08:45:22;;;;;;;15.98;10.88;;;4.60;99.90;;;5.15;100.00;101467.22;5020899;28;20419;-77
2021/11/22 08:47:50;;;;;;;16.42;10.60;;;4.60;99.90;;;5.15;100.00;101466.38;5055142;28;20029;-76
2021/11/22 08:50:18;;;;;;;16.05;11.20;;;4.60;99.90;;;5.01;100.00;101466.31;5037654;28;20447;-78
2021/11/22 08:52:45;;;;;;;15.35;11.55;;;4.60;99.90;;;5.15;100.00;101471.94;5035515;28;20037;-79
2021/11/22 08:55:15;;;;;;;15.90;11.38;;;4.60;99.90;;;5.12;100.00;101472.53;5060659;28;20020;-76
2021/11/22 08:57:42;;;;;;;14.50;10.38;;;4.60;99.90;;;5.16;100.00;101474.41;5056290;28;20040;-77
2021/11/22 09:00:17;;;;;;;18.13;11.75;;;4.70;99.90;;;5.34;100.00;101483.78;5054819;28;20513;-79
2021/11/22 09:02:43;;;;;;;15.27;11.20;;;4.80;99.90;;;5.35;100.00;101485.44;5055806;28;20148;-76
2021/11/22 09:05:09;;;;;;;14.10;10.38;;;4.80;99.90;;;5.38;100.00;101489.53;5054381;28;20108;-76
2021/11/22 09:07:35;;;;;;;17.00;11.02;;;4.80;99.90;;;5.43;100.00;101493.03;5054737;28;20033;-75
2021/11/22 09:10:00;;;;;;;13.77;10.23;;;4.90;99.90;;;5.46;100.00;101495.22;5036899;28;20036;-78
2021/11/22 09:12:26;;;;;;;14.68;10.13;;;4.90;99.90;;;5.52;100.00;101507.84;5036558;28;20106;-75
2021/11/22 09:14:54;;;;;;;13.48;11.05;;;5.00;99.90;;;5.63;100.00;101502.97;5054389;28;20106;-76
2021/11/22 09:17:20;;;;;;;16.83;10.48;;;5.10;99.90;;;5.71;100.00;101505.03;5054741;28;20033;-76
2021/11/22 09:19:47;;;;;;;14.30;10.45;;;5.10;99.90;;;5.85;100.00;101516.97;5055277;28;20029;-76
2021/11/22 09:22:13;;;;;;;13.93;10.77;;;5.20;99.90;;;5.82;100.00;101528.66;5055034;28;20025;-76
2021/11/22 09:24:42;;;;;;;15.90;11.07;;;5.20;99.90;;;5.77;100.00;101529.59;5054663;28;20068;-78
2021/11/22 09:27:10;;;;;;;14.82;10.90;;;5.20;99.90;;;5.80;100.00;101531.75;5036463;28;20033;-76
2021/11/22 09:29:37;;;;;;;15.75;11.27;;;5.10;99.90;;;5.75;100.00;101526.28;5037243;28;20036;-76
2021/11/22 09:32:07;;;;;;;16.88;11.93;;;5.10;99.90;;;5.80;100.00;101537.31;5054028;28;20029;-78
2021/11/22 09:34:35;;;;;;;16.02;11.95;;;5.20;99.90;;;5.88;100.00;101535.78;5037519;28;20052;-76
2021/11/22 09:37:01;;;;;;;15.57;10.57;;;5.20;99.90;;;5.94;100.00;101536.53;5020540;28;20249;-77
2021/11/22 09:39:27;;;;;;;16.10;11.45;;;5.30;99.90;;;6.05;100.00;101540.75;5054719;28;20029;-76
2021/11/22 09:41:53;;;;;;;14.95;10.32;;;5.30;99.90;;;6.17;100.00;101538.28;5054059;28;20059;-77
2021/11/22 09:44:22;;;;;;;13.52;11.00;;;5.40;99.90;;;6.41;100.00;101541.69;5036381;28;20115;-80
2021/11/22 09:46:51;;;;;;;14.20;11.35;;;5.60;99.90;;;6.51;99.69;101538.72;5058057;28;20060;-79
2021/11/22 09:49:18;;;;;;;14.05;11.05;;;5.70;99.90;;;6.60;99.93;101552.69;5025010;28;20132;-78
2021/11/22 09:51:44;;;;;;;15.30;11.77;;;5.80;99.90;;;6.66;99.61;101546.72;5048862;28;20029;-75
2021/11/22 09:54:10;;;;;;;15.15;11.70;;;5.90;99.90;;;6.79;99.39;101545.88;5069822;28;20033;-80
2021/11/22 09:56:38;;;;;;;17.17;12.27;;;5.90;99.90;;;6.73;98.76;101549.06;5040585;28;20021;-77
2021/11/22 09:59:05;;;;;;;15.50;11.65;;;6.00;99.90;;;7.12;97.24;101548.47;5057966;28;20107;-77
2021/11/22 10:01:37;;;;;;;15.35;11.25;;;6.20;99.90;;;6.96;96.02;101556.34;5045088;28;20033;-80
2021/11/22 10:04:10;;;;;;;15.98;10.88;;;6.10;99.90;;;6.69;97.12;101550.81;5045722;28;20533;-78
2021/11/22 10:06:55;;;;;;;14.20;11.95;;;5.90;99.90;;;7.09;97.00;101560.22;5042004;28;20033;-79
2021/11/22 10:09:33;;;;;;;14.57;10.77;;;6.20;99.90;;;6.93;95.55;101558.91;5053809;28;20033;-77
2021/11/22 10:12:25;;;;;;;14.25;11.10;;;6.10;99.90;;;6.76;97.68;101560.38;5038943;28;20093;-75